createdAt,value
2023-05-27T00:00:25.926Z,4.78
2023-05-27T00:03:29.240Z,5.10
2023-05-27T00:06:32.869Z,4.23
2023-05-27T00:09:36.658Z,5.18
2023-05-27T00:12:39.836Z,4.53
2023-05-27T00:15:43.192Z,4.70
2023-05-27T00:18:46.883Z,4.13
2023-05-27T00:21:50.033Z,4.27
2023-05-27T00:24:53.171Z,4.70
2023-05-27T00:27:57.355Z,4.38
2023-05-27T00:31:00.524Z,5.18
2023-05-27T00:34:03.741Z,4.43
2023-05-27T00:37:07.729Z,5.37
2023-05-27T00:40:12.925Z,4.72
2023-05-27T00:43:16.301Z,3.97
2023-05-27T00:46:20.554Z,4.57
2023-05-27T00:49:26.583Z,3.78
2023-05-27T00:52:30.681Z,4.80
2023-05-27T00:55:33.674Z,3.95
2023-05-27T00:58:38.142Z,4.03
2023-05-27T01:01:44.745Z,3.90
2023-05-27T01:04:48.510Z,4.22
2023-05-27T01:08:21.590Z,4.50
2023-05-27T01:11:29.871Z,4.00
2023-05-27T01:14:36.414Z,4.60
2023-05-27T01:17:44.247Z,3.97
2023-05-27T01:20:50.013Z,4.50
2023-05-27T01:23:53.312Z,4.20
2023-05-27T01:27:02.159Z,4.45
2023-05-27T01:30:05.739Z,4.72
2023-05-27T01:33:22.236Z,4.18
2023-05-27T01:39:52.394Z,3.80
2023-05-27T01:42:58.152Z,4.00
2023-05-27T01:46:02.563Z,4.35
2023-05-27T01:49:05.865Z,4.35
2023-05-27T01:52:09.965Z,4.43
2023-05-27T01:55:13.263Z,4.07
2023-05-27T01:58:16.384Z,4.20
2023-05-27T02:01:19.748Z,4.78
2023-05-27T02:04:22.956Z,3.92
2023-05-27T02:07:28.041Z,4.35
2023-05-27T02:10:31.368Z,3.90
2023-05-27T02:13:34.484Z,4.07
2023-05-27T02:16:37.923Z,4.35
2023-05-27T02:19:41.077Z,4.03
2023-05-27T02:22:47.566Z,4.22
2023-05-27T02:25:50.898Z,4.27
2023-05-27T02:28:54.248Z,5.00
2023-05-27T02:31:57.577Z,4.03
2023-05-27T02:35:02.040Z,4.47
2023-05-27T02:38:05.200Z,4.15
2023-05-27T02:41:08.120Z,3.80
2023-05-27T02:44:11.488Z,3.80
2023-05-27T02:47:14.404Z,4.55
2023-05-27T02:50:17.723Z,5.20
2023-05-27T02:53:20.797Z,4.60
2023-05-27T02:56:26.880Z,4.93
2023-05-27T02:59:30.269Z,4.85
2023-05-27T03:02:33.714Z,4.30
2023-05-27T03:05:37.146Z,4.25
2023-05-27T03:08:40.129Z,4.63
2023-05-27T03:11:43.104Z,4.30
2023-05-27T03:14:47.412Z,3.83
2023-05-27T03:17:53.236Z,4.43
2023-05-27T03:20:56.702Z,4.28
2023-05-27T03:23:59.664Z,4.68
2023-05-27T03:27:04.565Z,4.27
2023-05-27T03:30:09.414Z,4.28
2023-05-27T03:33:19.126Z,4.13
2023-05-27T03:36:22.451Z,4.43
2023-05-27T03:39:26.714Z,4.35
2023-05-27T03:42:33.459Z,4.33
2023-05-27T03:45:36.757Z,3.65
2023-05-27T03:48:40.756Z,4.70
2023-05-27T03:51:44.139Z,3.70
2023-05-27T03:54:49.152Z,3.55
2023-05-27T03:57:52.446Z,4.33
2023-05-27T04:00:56.300Z,4.10
2023-05-27T04:03:59.842Z,3.67
2023-05-27T04:07:03.119Z,3.80
2023-05-27T04:10:06.801Z,3.53
2023-05-27T04:13:10.029Z,3.50
2023-05-27T04:16:13.887Z,3.42
2023-05-27T04:19:17.528Z,3.92
2023-05-27T04:22:20.699Z,3.45
2023-05-27T04:25:24.380Z,3.72
2023-05-27T04:28:53.689Z,3.33
2023-05-27T04:31:59.732Z,3.70
2023-05-27T04:35:02.945Z,3.65
2023-05-27T04:38:06.037Z,3.38
2023-05-27T04:41:29.491Z,3.92
2023-05-27T04:44:56.777Z,3.03
2023-05-27T04:48:00.039Z,3.20
2023-05-27T04:51:03.262Z,3.97
2023-05-27T04:54:07.188Z,3.08
2023-05-27T04:57:11.413Z,3.70
2023-05-27T05:00:24.034Z,3.80
2023-05-27T05:03:38.468Z,3.55
2023-05-27T05:06:42.901Z,3.80
2023-05-27T05:09:46.917Z,3.63
2023-05-27T05:12:56.582Z,4.00
2023-05-27T05:15:59.766Z,3.97
2023-05-27T05:19:03.257Z,4.15
2023-05-27T05:22:13.962Z,3.90
2023-05-27T05:25:17.644Z,3.72
2023-05-27T05:28:26.329Z,4.22
2023-05-27T05:31:29.450Z,4.70
2023-05-27T05:34:32.783Z,4.28
2023-05-27T05:37:37.053Z,4.75
2023-05-27T05:40:41.005Z,4.75
2023-05-27T05:43:51.195Z,5.45
2023-05-27T05:46:54.707Z,4.20
2023-05-27T05:50:00.589Z,4.10
2023-05-27T05:53:03.768Z,4.70
2023-05-27T05:56:07.540Z,4.30
2023-05-27T05:59:10.705Z,5.07
2023-05-27T06:02:13.839Z,4.77
2023-05-27T06:05:16.970Z,5.13
2023-05-27T06:08:20.412Z,4.95
2023-05-27T06:11:33.133Z,5.00
2023-05-27T06:14:36.533Z,4.97
2023-05-27T06:17:40.338Z,4.90
2023-05-27T06:20:43.489Z,5.05
2023-05-27T06:23:46.523Z,4.55
2023-05-27T06:26:52.733Z,4.30
2023-05-27T06:29:55.751Z,5.22
2023-05-27T06:33:08.309Z,4.63
2023-05-27T06:36:11.814Z,4.55
2023-05-27T06:39:17.574Z,5.13
2023-05-27T06:42:20.908Z,4.35
2023-05-27T06:45:31.860Z,5.25
2023-05-27T06:48:58.364Z,4.60
2023-05-27T06:52:01.885Z,4.80
2023-05-27T06:55:08.053Z,4.82
2023-05-27T06:58:30.511Z,4.90
2023-05-27T07:01:37.358Z,4.97
2023-05-27T07:04:43.256Z,4.80
2023-05-27T07:07:47.094Z,4.75
2023-05-27T07:10:50.808Z,5.10
2023-05-27T07:13:56.603Z,5.03
2023-05-27T07:17:03.552Z,5.32
2023-05-27T07:20:07.515Z,4.47
2023-05-27T07:23:10.574Z,4.55
2023-05-27T07:26:15.162Z,4.13
2023-05-27T07:29:18.777Z,4.88
2023-05-27T07:32:31.202Z,3.97
2023-05-27T07:35:34.460Z,4.70
2023-05-27T07:38:37.433Z,4.28
2023-05-27T07:41:40.744Z,5.03
2023-05-27T07:44:43.898Z,4.22
2023-05-27T07:47:47.584Z,4.75
2023-05-27T07:50:51.287Z,3.83
2023-05-27T07:53:56.603Z,4.32
2023-05-27T07:57:02.561Z,4.32
2023-05-27T08:00:07.662Z,4.30
2023-05-27T08:03:28.786Z,4.72
2023-05-27T08:07:04.518Z,4.47
2023-05-27T08:10:23.582Z,4.03
2023-05-27T08:13:54.528Z,4.32
2023-05-27T08:17:16.790Z,3.80
2023-05-27T08:20:35.766Z,4.22
2023-05-27T08:23:57.910Z,3.87
2023-05-27T08:27:54.761Z,3.75
2023-05-27T08:31:10.309Z,3.80
2023-05-27T08:34:20.953Z,3.60
2023-05-27T08:37:24.076Z,3.95
2023-05-27T08:40:28.469Z,4.10
2023-05-27T08:43:33.331Z,4.18
2023-05-27T08:46:37.676Z,4.20
2023-05-27T08:49:42.257Z,3.80
2023-05-27T08:52:53.449Z,4.18
2023-05-27T08:55:59.089Z,3.70
2023-05-27T08:59:02.847Z,3.78
2023-05-27T09:02:13.161Z,4.22
2023-05-27T09:05:17.603Z,3.75
2023-05-27T09:08:20.888Z,4.25
2023-05-27T09:11:26.811Z,3.73
2023-05-27T09:14:33.408Z,3.50
2023-05-27T09:17:42.509Z,4.20
2023-05-27T09:20:46.264Z,3.78
2023-05-27T09:27:06.621Z,3.10
2023-05-27T09:30:10.832Z,3.78
2023-05-27T09:33:14.530Z,3.75
2023-05-27T09:36:23.214Z,4.00
2023-05-27T09:39:26.231Z,4.13
2023-05-27T09:42:40.128Z,3.87
2023-05-27T09:45:44.102Z,4.00
2023-05-27T09:48:47.208Z,4.30
2023-05-27T09:51:50.600Z,3.40
2023-05-27T09:54:54.859Z,3.72
2023-05-27T09:57:58.787Z,3.33
2023-05-27T10:01:02.623Z,3.30
2023-05-27T10:04:06.725Z,4.50
2023-05-27T10:07:13.137Z,3.70
2023-05-27T10:10:19.646Z,3.60
2023-05-27T10:13:26.931Z,4.00
2023-05-27T10:16:30.011Z,3.65
2023-05-27T10:19:33.442Z,3.80
2023-05-27T10:22:48.526Z,4.13
2023-05-27T10:25:54.098Z,3.47
2023-05-27T10:29:16.319Z,3.87
2023-05-27T10:32:19.652Z,4.15
2023-05-27T10:35:28.442Z,3.45
2023-05-27T10:38:31.896Z,3.88
2023-05-27T10:41:44.561Z,4.00
2023-05-27T10:44:47.733Z,3.40
2023-05-27T10:47:50.982Z,4.13
2023-05-27T10:50:55.010Z,4.10
2023-05-27T10:54:09.822Z,3.97
2023-05-27T10:57:23.667Z,4.00
2023-05-27T11:00:29.331Z,3.63
2023-05-27T11:03:32.423Z,3.95
2023-05-27T11:06:35.992Z,3.70
2023-05-27T11:09:55.251Z,3.80
2023-05-27T11:12:58.571Z,3.90
2023-05-27T11:16:04.268Z,3.63
2023-05-27T11:19:12.937Z,3.88
2023-05-27T11:22:18.219Z,3.83
2023-05-27T11:25:21.424Z,4.18
2023-05-27T11:28:24.388Z,3.63
2023-05-27T11:31:32.275Z,3.57
2023-05-27T11:34:37.014Z,3.50
2023-05-27T11:37:40.148Z,3.40
2023-05-27T11:40:43.115Z,3.25
2023-05-27T11:43:53.933Z,3.08
2023-05-27T11:47:01.739Z,3.10
2023-05-27T11:50:08.207Z,2.95
2023-05-27T11:53:11.133Z,3.08
2023-05-27T11:56:15.483Z,3.50
2023-05-27T11:59:19.297Z,3.67
2023-05-27T12:02:22.933Z,3.60
2023-05-27T12:08:36.272Z,3.15
2023-05-27T12:11:39.914Z,3.17
2023-05-27T12:14:43.032Z,2.80
2023-05-27T12:17:46.147Z,3.03
2023-05-27T12:20:49.457Z,2.90
2023-05-27T12:23:53.540Z,3.60
2023-05-27T12:26:57.087Z,3.33
2023-05-27T12:30:00.388Z,3.75
2023-05-27T12:33:05.222Z,3.20
2023-05-27T12:36:08.530Z,3.45
2023-05-27T12:39:11.833Z,3.28
2023-05-27T12:42:16.570Z,3.83
2023-05-27T12:45:23.141Z,3.25
2023-05-27T12:48:26.937Z,3.20
2023-05-27T12:51:31.879Z,3.17
2023-05-27T12:54:35.101Z,2.88
2023-05-27T12:57:39.121Z,3.30
2023-05-27T13:00:45.154Z,3.38
2023-05-27T13:03:48.395Z,3.90
2023-05-27T13:06:51.775Z,3.60
2023-05-27T13:09:55.066Z,3.55
2023-05-27T13:13:00.272Z,3.47
2023-05-27T13:16:03.524Z,3.35
2023-05-27T13:19:06.723Z,4.10
2023-05-27T13:22:09.813Z,3.30
2023-05-27T13:25:14.100Z,3.83
2023-05-27T13:28:17.430Z,3.33
2023-05-27T13:31:20.788Z,3.55
2023-05-27T13:34:24.216Z,3.60
2023-05-27T13:37:27.870Z,3.40
2023-05-27T13:40:31.540Z,3.78
2023-05-27T13:43:34.807Z,3.53
2023-05-27T13:46:38.021Z,3.45
2023-05-27T13:49:41.375Z,3.30
2023-05-27T13:52:46.476Z,3.58
2023-05-27T13:55:50.058Z,2.90
2023-05-27T13:58:54.051Z,3.55
2023-05-27T14:01:57.405Z,3.15
2023-05-27T14:05:00.638Z,3.30
2023-05-27T14:08:04.800Z,3.10
2023-05-27T14:11:07.717Z,3.33
2023-05-27T14:14:10.694Z,3.00
2023-05-27T14:17:13.666Z,3.55
2023-05-27T14:20:17.143Z,2.70
2023-05-27T14:23:20.972Z,3.38
2023-05-27T14:26:24.334Z,3.42
2023-05-27T14:29:27.417Z,3.00
2023-05-27T14:32:30.615Z,2.90
2023-05-27T14:35:40.840Z,3.00
2023-05-27T14:38:44.775Z,3.67
2023-05-27T14:41:47.911Z,3.38
2023-05-27T14:44:51.044Z,3.40
2023-05-27T14:47:56.278Z,3.28
2023-05-27T14:50:59.510Z,2.80
2023-05-27T14:54:02.620Z,3.30
2023-05-27T14:57:06.082Z,3.30
2023-05-27T15:00:09.805Z,3.10
2023-05-27T15:03:12.988Z,3.08
2023-05-27T15:06:16.581Z,3.10
2023-05-27T15:09:20.521Z,3.33
2023-05-27T15:12:23.670Z,3.13
2023-05-27T15:15:27.325Z,3.00
2023-05-27T15:18:30.910Z,3.38
2023-05-27T15:21:34.204Z,2.90
2023-05-27T15:24:37.255Z,3.15
2023-05-27T15:27:41.230Z,2.67
2023-05-27T15:30:44.588Z,2.97
2023-05-27T15:33:47.855Z,2.97
2023-05-27T15:36:52.233Z,2.90
2023-05-27T15:39:56.258Z,3.10
2023-05-27T15:43:01.021Z,2.53
2023-05-27T15:46:05.644Z,2.38
2023-05-27T15:49:09.249Z,2.88
2023-05-27T15:52:14.035Z,2.60
2023-05-27T15:55:17.221Z,3.17
2023-05-27T15:58:20.378Z,2.95
2023-05-27T16:01:23.425Z,2.72
2023-05-27T16:04:26.525Z,2.83
2023-05-27T16:07:30.404Z,2.67
2023-05-27T16:10:33.638Z,2.38
2023-05-27T16:13:38.816Z,2.60
2023-05-27T16:16:41.965Z,2.58
2023-05-27T16:19:45.173Z,2.75
2023-05-27T16:22:48.537Z,2.83
2023-05-27T16:25:54.297Z,3.28
2023-05-27T16:28:57.661Z,2.30
2023-05-27T16:32:00.978Z,2.42
2023-05-27T16:35:04.614Z,2.40
2023-05-27T16:38:07.596Z,2.40
2023-05-27T16:41:10.862Z,2.67
2023-05-27T16:44:14.429Z,2.40
2023-05-27T16:47:18.378Z,2.65
2023-05-27T16:50:22.970Z,2.92
2023-05-27T16:53:26.354Z,2.53
2023-05-27T16:56:29.468Z,3.40
2023-05-27T16:59:32.883Z,2.70
2023-05-27T17:02:36.446Z,2.55
2023-05-27T17:05:39.496Z,2.83
2023-05-27T17:08:43.345Z,2.67
2023-05-27T17:11:47.137Z,2.65
2023-05-27T17:14:50.137Z,3.00
2023-05-27T17:17:53.597Z,2.92
2023-05-27T17:20:57.227Z,2.90
2023-05-27T17:24:00.945Z,2.57
2023-05-27T17:27:04.106Z,2.60
2023-05-27T17:30:07.735Z,3.05
2023-05-27T17:33:10.852Z,2.88
2023-05-27T17:36:15.341Z,2.47
2023-05-27T17:39:18.538Z,2.57
2023-05-27T17:42:21.600Z,2.70
2023-05-27T17:45:24.757Z,2.97
2023-05-27T17:48:28.487Z,2.30
2023-05-27T17:51:31.743Z,2.92
2023-05-27T17:54:35.081Z,2.90
2023-05-27T17:57:38.564Z,2.50
2023-05-27T18:00:42.535Z,2.97
2023-05-27T18:03:46.456Z,3.30
2023-05-27T18:06:49.814Z,3.30
2023-05-27T18:09:53.267Z,2.90
2023-05-27T18:12:57.320Z,2.70
2023-05-27T18:16:00.910Z,2.88
2023-05-27T18:19:04.063Z,2.40
2023-05-27T18:22:07.179Z,3.05
2023-05-27T18:25:11.029Z,2.17
2023-05-27T18:28:14.206Z,2.15
2023-05-27T18:31:17.612Z,2.70
2023-05-27T18:34:20.885Z,2.88
2023-05-27T18:37:24.296Z,2.45
2023-05-27T18:40:30.704Z,2.30
2023-05-27T18:43:34.246Z,2.25
2023-05-27T18:46:39.107Z,2.92
2023-05-27T18:49:42.088Z,3.17
2023-05-27T18:52:46.257Z,2.60
2023-05-27T18:55:49.734Z,2.57
2023-05-27T18:58:53.259Z,2.25
2023-05-27T19:01:56.504Z,2.50
2023-05-27T19:05:01.641Z,3.47
2023-05-27T19:08:05.233Z,3.70
2023-05-27T19:11:08.366Z,3.60
2023-05-27T19:14:11.361Z,3.50
2023-05-27T19:17:14.401Z,4.05
2023-05-27T19:20:17.525Z,3.50
2023-05-27T19:23:20.617Z,3.20
2023-05-27T19:26:24.338Z,3.90
2023-05-27T19:29:27.747Z,3.90
2023-05-27T19:32:31.013Z,3.83
2023-05-27T19:35:34.936Z,4.00
2023-05-27T19:38:38.214Z,2.92
2023-05-27T19:41:41.922Z,2.73
2023-05-27T19:44:45.275Z,2.42
2023-05-27T19:47:48.564Z,3.08
2023-05-27T19:50:51.966Z,2.50
2023-05-27T19:53:57.463Z,2.35
2023-05-27T19:57:01.952Z,2.30
2023-05-27T20:00:10.057Z,2.50
2023-05-27T20:03:14.032Z,2.70
2023-05-27T20:06:17.188Z,3.03
2023-05-27T20:09:21.229Z,3.20
2023-05-27T20:12:56.828Z,2.90
2023-05-27T20:15:59.849Z,2.60
2023-05-27T20:19:02.930Z,2.63
2023-05-27T20:22:06.178Z,2.75
2023-05-27T20:25:10.183Z,3.83
2023-05-27T20:28:14.405Z,2.87
2023-05-27T20:31:17.580Z,3.28
2023-05-27T20:34:20.653Z,2.97
2023-05-27T20:37:23.711Z,3.00
2023-05-27T20:40:26.939Z,2.67
2023-05-27T20:43:29.898Z,2.33
2023-05-27T20:46:32.997Z,2.40
2023-05-27T20:49:35.980Z,2.97
2023-05-27T20:52:39.355Z,2.63
2023-05-27T20:55:42.894Z,2.10
2023-05-27T20:58:45.840Z,2.90
2023-05-27T21:01:48.936Z,2.28
2023-05-27T21:04:52.409Z,2.38
2023-05-27T21:07:55.621Z,2.25
2023-05-27T21:10:58.677Z,2.58
2023-05-27T21:14:02.931Z,2.13
2023-05-27T21:17:06.249Z,2.58
2023-05-27T21:20:09.727Z,2.90
2023-05-27T21:23:13.160Z,2.58
2023-05-27T21:26:16.593Z,2.80
2023-05-27T21:29:19.701Z,2.43
2023-05-27T21:32:24.152Z,2.47
2023-05-27T21:35:27.182Z,2.78
2023-05-27T21:38:34.576Z,2.40
2023-05-27T21:41:38.819Z,2.42
2023-05-27T21:44:41.796Z,2.73
2023-05-27T21:47:44.954Z,2.53
2023-05-27T21:50:48.326Z,2.72
2023-05-27T21:53:53.113Z,2.47
2023-05-27T21:56:56.037Z,2.72
2023-05-27T21:59:59.126Z,2.20
2023-05-27T22:03:02.574Z,2.17
2023-05-27T22:06:06.321Z,3.17
2023-05-27T22:09:09.728Z,2.20
2023-05-27T22:12:15.648Z,2.00
2023-05-27T22:15:18.897Z,2.70
2023-05-27T22:18:21.931Z,2.63
2023-05-27T22:21:29.338Z,2.70
2023-05-27T22:24:34.109Z,3.38
2023-05-27T22:27:37.228Z,2.75
2023-05-27T22:30:40.202Z,2.70
2023-05-27T22:33:43.175Z,2.40
2023-05-27T22:36:46.554Z,2.45
2023-05-27T22:39:49.532Z,3.03
2023-05-27T22:42:52.878Z,3.50
2023-05-27T22:45:56.034Z,2.57
2023-05-27T22:48:59.409Z,2.70
2023-05-27T22:52:02.629Z,2.97
2023-05-27T22:55:06.110Z,2.80
2023-05-27T22:58:09.193Z,2.88
2023-05-27T23:01:12.615Z,2.87
2023-05-27T23:04:16.119Z,2.67
2023-05-27T23:07:19.600Z,3.22
2023-05-27T23:10:22.987Z,3.28
2023-05-27T23:13:26.607Z,2.88
2023-05-27T23:16:31.534Z,3.20
2023-05-27T23:19:35.476Z,2.15
2023-05-27T23:22:38.556Z,2.88
2023-05-27T23:25:42.055Z,2.75
2023-05-27T23:28:45.044Z,3.03
2023-05-27T23:31:48.116Z,2.97
2023-05-27T23:34:51.466Z,3.05
2023-05-27T23:37:54.738Z,3.22
2023-05-27T23:40:57.636Z,2.55
2023-05-27T23:44:00.610Z,3.08
2023-05-27T23:47:03.654Z,2.80
2023-05-27T23:50:10.369Z,2.22
2023-05-27T23:53:13.321Z,2.60
2023-05-27T23:56:16.428Z,3.35
2023-05-27T23:59:19.846Z,2.70
